Time;durP1;ratioP1;P1;durP2;ratioP2;P2;SDS_P1;SDS_P2;PMS_P1;PMS_P2;Temp;Humidity;BMP_temperature;BMP_pressure;BME280_temperature;BME280_humidity;BME280_pressure;Samples;Min_cycle;Max_cycle;Signal;HPM_P1;HPM_P2
2022/06/04 00:02:21;;;;;;;;;;;;;;;14.36;64.85;101037.13;4910052;29;4951;-94
2022/06/04 00:04:47;;;;;;;;;;;;;;;14.36;64.81;101036.28;4935383;29;2788;-94
2022/06/04 00:07:13;;;;;;;;;;;;;;;14.34;64.97;101033.81;4917644;29;2154;-94
2022/06/04 00:15:28;;;;;;;;;;;;;;;14.33;65.00;101037.56;4920658;29;1996;-94
2022/06/04 00:17:54;;;;;;;;;;;;;;;14.30;64.94;101036.16;4920086;29;2023;-94
2022/06/04 00:20:21;;;;;;;;;;;;;;;14.29;64.94;101039.94;4916935;29;3980;-94
2022/06/04 00:22:47;;;;;;;;;;;;;;;14.30;64.77;101040.75;4919278;29;2094;-95
2022/06/04 00:25:14;;;;;;;;;;;;;;;14.29;64.79;101047.22;4921361;29;1890;-94
2022/06/04 00:27:40;;;;;;;;;;;;;;;14.27;64.82;101044.75;4922041;29;1343;-94
2022/06/04 00:30:07;;;;;;;;;;;;;;;14.26;64.91;101045.78;4921249;29;1970;-94
2022/06/04 00:32:34;;;;;;;;;;;;;;;14.26;64.73;101044.97;4914312;29;2972;-93
2022/06/04 00:35:00;;;;;;;;;;;;;;;14.24;64.66;101047.94;4917429;29;1831;-94
2022/06/04 00:37:26;;;;;;;;;;;;;;;14.24;64.69;101052.53;4921778;29;1769;-95
2022/06/04 00:39:53;;;;;;;;;;;;;;;14.23;64.83;101050.84;4921926;29;1314;-94
2022/06/04 00:42:20;;;;;;;;;;;;;;;14.23;64.80;101064.41;4921531;29;1916;-94
2022/06/04 00:44:46;;;;;;;;;;;;;;;14.22;64.60;101060.03;4920913;29;1919;-94
2022/06/04 00:47:12;;;;;;;;;;;;;;;14.20;64.60;101060.25;4907925;29;2035;-95
2022/06/04 00:49:39;;;;;;;;;;;;;;;14.19;64.76;101061.31;4920313;29;2051;-94
2022/06/04 00:52:05;;;;;;;;;;;;;;;14.19;64.69;101064.03;4915136;29;1906;-94
2022/06/04 00:54:32;;;;;;;;;;;;;;;14.18;64.73;101067.81;4937578;29;1282;-94
2022/06/04 00:56:58;;;;;;;;;;;;;;;14.17;64.61;101074.28;4919960;29;1353;-94
2022/06/04 00:59:26;;;;;;;;;;;;;;;14.16;64.73;101072.63;4921180;29;1435;-94
2022/06/04 01:01:52;;;;;;;;;;;;;;;14.15;64.64;101073.69;4911477;29;1990;-94
2022/06/04 01:04:47;;;;;;;;;;;;;;;14.15;64.68;101078.25;4918442;29;2078;-94
2022/06/04 01:07:05;;;;;;;;;;;;;;;14.12;64.68;101076.88;4936182;29;2084;-94
2022/06/04 01:09:31;;;;;;;;;;;;;;;14.13;64.62;101075.78;4923475;29;1511;-94
2022/06/04 01:12:10;;;;;;;;;;;;;;;14.11;64.44;101067.06;4921597;29;1336;-94
2022/06/04 01:14:36;;;;;;;;;;;;;;;14.08;64.56;101079.19;4921392;29;1202;-94
2022/06/04 01:17:02;;;;;;;;;;;;;;;14.08;64.47;101084.59;4920490;29;2064;-94
2022/06/04 01:19:29;;;;;;;;;;;;;;;14.07;64.68;101087.56;4919517;29;1991;-93
2022/06/04 01:21:56;;;;;;;;;;;;;;;14.05;64.50;101090.47;4920595;29;1918;-94
2022/06/04 01:24:22;;;;;;;;;;;;;;;14.05;64.52;101092.38;4924948;29;1839;-94
2022/06/04 01:26:48;;;;;;;;;;;;;;;14.05;64.45;101097.78;4921011;29;1276;-94
2022/06/04 01:29:15;;;;;;;;;;;;;;;14.04;64.38;101098.84;4920934;29;1306;-94
2022/06/04 01:31:41;;;;;;;;;;;;;;;14.04;64.48;101104.25;4921567;29;1930;-94
2022/06/04 01:34:08;;;;;;;;;;;;;;;14.02;64.41;101096.34;4904112;29;1978;-94
2022/06/04 01:36:34;;;;;;;;;;;;;;;14.01;64.35;101094.72;4936148;29;2044;-94
2022/06/04 01:39:01;;;;;;;;;;;;;;;14.00;64.49;101101.19;4920872;29;1648;-94
2022/06/04 01:41:26;;;;;;;;;;;;;;;13.99;64.46;101096.81;4912975;29;2112;-93
2022/06/04 01:43:53;;;;;;;;;;;;;;;13.97;64.30;101098.94;4919757;29;1960;-94
2022/06/04 01:46:19;;;;;;;;;;;;;;;13.96;64.49;101091.03;4916175;29;2257;-94
2022/06/04 01:48:45;;;;;;;;;;;;;;;13.95;64.50;101098.34;4914535;29;2014;-94
2022/06/04 01:51:12;;;;;;;;;;;;;;;13.94;64.41;101096.69;4934081;29;2110;-93
2022/06/04 01:53:38;;;;;;;;;;;;;;;13.93;64.32;101102.31;4913771;29;2159;-94
2022/06/04 01:56:04;;;;;;;;;;;;;;;13.91;64.41;101099.84;4918236;29;2399;-94
2022/06/04 01:58:31;;;;;;;;;;;;;;;13.92;64.32;101106.09;4917435;29;1799;-93
2022/06/04 02:00:57;;;;;;;;;;;;;;;13.91;64.44;101101.72;4910943;29;2285;-94
2022/06/04 02:03:23;;;;;;;;;;;;;;;13.89;64.31;101106.56;4915780;29;2061;-94
2022/06/04 02:05:50;;;;;;;;;;;;;;;13.88;64.43;101110.31;4918509;29;2034;-92
2022/06/04 02:08:16;;;;;;;;;;;;;;;13.88;64.36;101104.88;4931706;29;2149;-94
2022/06/04 02:10:42;;;;;;;;;;;;;;;13.86;64.27;101107.84;4920355;29;1401;-94
2022/06/04 02:13:09;;;;;;;;;;;;;;;13.84;64.39;101110.75;4913196;29;2273;-94
2022/06/04 02:15:36;;;;;;;;;;;;;;;13.83;64.23;101105.59;4908366;29;2288;-94
2022/06/04 02:18:02;;;;;;;;;;;;;;;13.81;64.26;101113.91;4918571;29;2004;-93
2022/06/04 02:20:28;;;;;;;;;;;;;;;13.81;64.43;101108.50;4907845;29;2247;-93
2022/06/04 02:22:55;;;;;;;;;;;;;;;13.81;64.15;101113.91;4918316;29;1986;-93
2022/06/04 02:25:21;;;;;;;;;;;;;;;13.80;64.14;101114.97;4920065;29;1792;-94
2022/06/04 02:27:48;;;;;;;;;;;;;;;13.80;64.09;101123.09;4918668;29;2126;-94
2022/06/04 02:30:14;;;;;;;;;;;;;;;13.79;64.19;101120.63;4934749;29;1983;-93
2022/06/04 02:32:40;;;;;;;;;;;;;;;13.77;64.06;101115.44;4909820;29;4927;-94
2022/06/04 02:35:06;;;;;;;;;;;;;;;13.77;64.07;101117.31;4925970;29;3052;-93
2022/06/04 02:37:33;;;;;;;;;;;;;;;13.75;64.19;101120.25;4932469;29;3951;-94
2022/06/04 02:39:59;;;;;;;;;;;;;;;13.73;64.02;101119.63;4921695;29;2246;-93
2022/06/04 02:42:26;;;;;;;;;;;;;;;13.72;64.11;101123.41;4915052;29;2285;-93
2022/06/04 02:44:52;;;;;;;;;;;;;;;13.71;64.19;101123.66;4920807;29;1207;-93
2022/06/04 02:47:18;;;;;;;;;;;;;;;13.71;64.12;101119.06;4918254;29;2328;-94
2022/06/04 02:49:45;;;;;;;;;;;;;;;13.70;64.26;101122.78;4924069;29;4103;-93
2022/06/04 02:52:11;;;;;;;;;;;;;;;13.68;64.01;101118.66;4922007;29;2002;-93
2022/06/04 02:54:37;;;;;;;;;;;;;;;13.68;64.20;101116.81;4919461;29;2071;-94
2022/06/04 02:57:04;;;;;;;;;;;;;;;13.68;64.14;101115.94;4938200;29;1767;-94
2022/06/04 02:59:30;;;;;;;;;;;;;;;13.66;64.15;101118.09;4921436;29;2169;-94
2022/06/04 03:01:57;;;;;;;;;;;;;;;13.65;63.97;101119.97;4917556;29;2940;-94
2022/06/04 03:04:24;;;;;;;;;;;;;;;13.64;64.14;101121.00;4920292;29;2057;-93
2022/06/04 03:06:51;;;;;;;;;;;;;;;13.64;64.08;101119.13;4937853;29;2025;-93
2022/06/04 03:09:17;;;;;;;;;;;;;;;13.61;64.17;101114.16;4920253;29;2115;-93
2022/06/04 03:11:44;;;;;;;;;;;;;;;13.60;64.15;101120.63;4922951;29;2000;-93
2022/06/04 03:14:10;;;;;;;;;;;;;;;13.60;64.13;101106.28;4920777;29;2095;-93
2022/06/04 03:16:37;;;;;;;;;;;;;;;13.59;63.99;101107.34;4921963;29;2022;-93
2022/06/04 03:19:03;;;;;;;;;;;;;;;13.58;64.11;101114.59;4921546;29;2046;-93
2022/06/04 03:21:30;;;;;;;;;;;;;;;13.58;64.02;101105.66;4920432;29;1990;-93
2022/06/04 03:23:56;;;;;;;;;;;;;;;13.57;64.02;101110.25;4939555;29;1919;-93
2022/06/04 03:26:22;;;;;;;;;;;;;;;13.56;64.01;101115.88;4921000;29;2020;-93
2022/06/04 03:28:48;;;;;;;;;;;;;;;13.55;63.83;101111.53;4927623;29;2146;-94
2022/06/04 03:31:15;;;;;;;;;;;;;;;13.54;63.95;101128.84;4931548;29;2062;-93
2022/06/04 03:33:41;;;;;;;;;;;;;;;13.52;63.96;101134.44;4919340;29;1985;-93
2022/06/04 03:36:08;;;;;;;;;;;;;;;13.52;63.82;101128.22;4918746;29;2075;-93
2022/06/04 03:38:34;;;;;;;;;;;;;;;13.51;63.99;101129.28;4939190;29;2058;-93
2022/06/04 03:41:00;;;;;;;;;;;;;;;13.50;63.93;101133.88;4935431;29;1963;-94
2022/06/04 03:43:27;;;;;;;;;;;;;;;13.50;63.77;101139.28;4918285;29;2225;-93
2022/06/04 03:45:53;;;;;;;;;;;;;;;13.49;63.71;101136.78;4919204;29;2107;-93
2022/06/04 03:48:19;;;;;;;;;;;;;;;13.47;63.94;101133.47;4938848;29;2094;-93
2022/06/04 03:50:46;;;;;;;;;;;;;;;13.46;63.83;101137.25;4914189;29;2244;-93
2022/06/04 03:53:12;;;;;;;;;;;;;;;13.47;63.79;101147.00;4920099;29;1162;-93
2022/06/04 03:55:39;;;;;;;;;;;;;;;13.45;63.82;101139.13;4913151;29;2226;-93
2022/06/04 03:58:05;;;;;;;;;;;;;;;13.45;63.72;101146.41;4907607;29;2487;-93
2022/06/04 04:00:31;;;;;;;;;;;;;;;13.44;63.66;101144.75;4923031;29;1542;-93
2022/06/04 04:02:58;;;;;;;;;;;;;;;13.43;63.77;101148.50;4927618;29;1927;-93
2022/06/04 04:05:25;;;;;;;;;;;;;;;13.42;63.69;101149.56;4919971;29;1225;-93
2022/06/04 04:07:51;;;;;;;;;;;;;;;13.42;63.81;101149.56;4936505;29;1982;-93
2022/06/04 04:10:17;;;;;;;;;;;;;;;13.40;63.65;101152.50;4922667;29;1323;-93
2022/06/04 04:12:44;;;;;;;;;;;;;;;13.40;63.60;101157.91;4922139;29;1542;-93
2022/06/04 04:15:10;;;;;;;;;;;;;;;13.38;63.66;101163.56;4921676;29;2017;-93
2022/06/04 04:17:39;;;;;;;;;;;;;;;13.37;63.56;101161.88;4922443;29;1237;-93
2022/06/04 04:20:05;;;;;;;;;;;;;;;13.37;63.53;101163.75;4938339;29;1331;-93
2022/06/04 04:22:31;;;;;;;;;;;;;;;13.37;63.48;101163.75;4937140;29;1914;-93
2022/06/04 04:24:58;;;;;;;;;;;;;;;13.35;63.53;101158.59;4936871;29;2244;-93
2022/06/04 04:27:25;;;;;;;;;;;;;;;13.34;63.51;101154.22;4922339;29;1420;-93
2022/06/04 04:29:51;;;;;;;;;;;;;;;13.33;63.41;101157.97;4938479;29;1981;-92
2022/06/04 04:32:18;;;;;;;;;;;;;;;13.32;63.61;101161.72;4936053;29;2131;-93
2022/06/04 04:34:44;;;;;;;;;;;;;;;13.31;63.48;101160.06;4921950;29;1417;-93
2022/06/04 04:37:10;;;;;;;;;;;;;;;13.31;63.34;101168.19;4921382;29;2006;-93
2022/06/04 04:39:37;;;;;;;;;;;;;;;13.31;63.31;101168.19;4921921;29;1295;-93
2022/06/04 04:42:03;;;;;;;;;;;;;;;13.30;63.31;101176.53;4920685;29;1927;-93
2022/06/04 04:44:30;;;;;;;;;;;;;;;13.30;63.29;101163.84;4921963;29;1393;-92
2022/06/04 04:46:56;;;;;;;;;;;;;;;13.29;63.42;101172.16;4920887;29;2109;-93
2022/06/04 04:49:22;;;;;;;;;;;;;;;13.28;63.38;101179.44;4921270;29;1518;-93
2022/06/04 04:51:49;;;;;;;;;;;;;;;13.28;63.46;101179.44;4920769;29;1911;-92
2022/06/04 04:54:15;;;;;;;;;;;;;;;13.28;63.47;101184.84;4921351;29;1204;-93
2022/06/04 04:56:41;;;;;;;;;;;;;;;13.27;63.52;101183.22;4921429;29;1195;-93
2022/06/04 04:59:08;;;;;;;;;;;;;;;13.26;63.23;101181.53;4918934;29;2133;-93
2022/06/04 05:01:34;;;;;;;;;;;;;;;13.26;63.52;101186.94;4932423;29;4874;-93
2022/06/04 05:04:00;;;;;;;;;;;;;;;13.25;63.32;101188.00;4915928;29;4263;-92
2022/06/04 05:06:27;;;;;;;;;;;;;;;13.25;63.32;101184.44;4920173;29;2190;-92
2022/06/04 05:08:53;;;;;;;;;;;;;;;13.24;63.48;101189.03;4921001;29;2030;-93
2022/06/04 05:11:19;;;;;;;;;;;;;;;13.24;63.20;101199.84;4921708;29;1341;-93
2022/06/04 05:13:49;;;;;;;;;;;;;;;13.23;63.11;101200.88;4947239;29;1770;-92
2022/06/04 05:16:15;;;;;;;;;;;;;;;13.24;63.30;101204.44;4914336;29;2251;-92
2022/06/04 05:18:42;;;;;;;;;;;;;;;13.24;63.19;101204.44;4921137;29;1278;-93
2022/06/04 05:21:08;;;;;;;;;;;;;;;13.23;63.03;101214.41;4919346;29;3472;-92
2022/06/04 05:23:34;;;;;;;;;;;;;;;13.23;63.30;101211.72;4920870;29;1984;-92
2022/06/04 05:26:01;;;;;;;;;;;;;;;13.24;63.03;101223.38;4921286;29;1300;-93
2022/06/04 05:28:27;;;;;;;;;;;;;;;13.22;63.05;101220.06;4938879;29;1364;-92
2022/06/04 05:30:54;;;;;;;;;;;;;;;13.21;63.01;101221.94;4919874;29;1198;-93
2022/06/04 05:33:20;;;;;;;;;;;;;;;13.22;63.08;101220.06;4927288;29;3164;-93
2022/06/04 05:35:46;;;;;;;;;;;;;;;13.21;63.07;101224.66;4918991;29;2030;-93
2022/06/04 05:38:13;;;;;;;;;;;;;;;13.21;63.03;101223.78;4949544;29;2044;-93
2022/06/04 05:40:39;;;;;;;;;;;;;;;13.21;62.96;101227.34;4937375;29;1563;-93
2022/06/04 05:43:05;;;;;;;;;;;;;;;13.20;63.09;101228.38;4920764;29;1911;-93
2022/06/04 05:45:32;;;;;;;;;;;;;;;13.20;62.84;101228.38;4921599;29;1174;-93
2022/06/04 05:47:58;;;;;;;;;;;;;;;13.19;63.20;101232.97;4921034;29;1296;-93
2022/06/04 05:50:24;;;;;;;;;;;;;;;13.19;62.92;101237.56;4918375;29;2286;-93
2022/06/04 05:52:50;;;;;;;;;;;;;;;13.19;62.94;101232.13;4920143;29;2271;-93
2022/06/04 05:55:17;;;;;;;;;;;;;;;13.18;62.90;101228.63;4918558;29;1665;-93
2022/06/04 05:57:43;;;;;;;;;;;;;;;13.19;62.95;101229.44;4920864;29;1300;-94
2022/06/04 06:00:10;;;;;;;;;;;;;;;13.19;62.90;101230.25;4919303;29;2142;-94
2022/06/04 06:02:36;;;;;;;;;;;;;;;13.19;62.94;101224.03;4918832;29;2263;-92
2022/06/04 06:05:03;;;;;;;;;;;;;;;13.18;62.83;101214.28;4937259;29;1958;-93
2022/06/04 06:07:29;;;;;;;;;;;;;;;13.19;62.83;101215.91;4918895;29;2257;-93
2022/06/04 06:09:56;;;;;;;;;;;;;;;13.18;62.92;101209.69;4922170;29;1281;-93
2022/06/04 06:12:22;;;;;;;;;;;;;;;13.19;62.91;101205.91;4956404;29;1464;-93
2022/06/04 06:14:48;;;;;;;;;;;;;;;13.19;62.82;101210.50;4924535;29;1229;-93
2022/06/04 06:17:15;;;;;;;;;;;;;;;13.19;62.72;101208.63;4956451;29;1198;-95
2022/06/04 06:19:41;;;;;;;;;;;;;;;13.19;62.67;101205.09;4924718;29;1162;-94
2022/06/04 06:22:08;;;;;;;;;;;;;;;13.18;62.87;101206.16;4923071;29;1927;-94
2022/06/04 06:24:34;;;;;;;;;;;;;;;13.19;62.83;101216.75;4941390;29;1911;-94
2022/06/04 06:27:02;;;;;;;;;;;;;;;13.19;62.90;101205.91;4921573;29;1175;-94
2022/06/04 06:29:29;;;;;;;;;;;;;;;13.20;62.63;101209.44;4916855;29;1947;-94
2022/06/04 06:31:55;;;;;;;;;;;;;;;13.21;62.51;101204.84;4924543;29;1341;-94
2022/06/04 06:34:22;;;;;;;;;;;;;;;13.20;62.70;101206.75;4924217;29;1167;-94
2022/06/04 06:36:48;;;;;;;;;;;;;;;13.20;62.65;101209.44;4922024;29;2376;-94
2022/06/04 06:39:15;;;;;;;;;;;;;;;13.21;62.40;101210.25;4924473;29;1295;-94
2022/06/04 06:41:42;;;;;;;;;;;;;;;13.21;62.44;101204.84;4924327;29;1471;-94
2022/06/04 06:44:08;;;;;;;;;;;;;;;13.21;62.61;101210.25;4956382;29;1976;-94
2022/06/04 06:46:35;;;;;;;;;;;;;;;13.21;62.43;101215.69;4922648;29;2371;-94
2022/06/04 06:49:01;;;;;;;;;;;;;;;13.22;62.45;101220.06;4924037;29;1170;-94
2022/06/04 06:51:28;;;;;;;;;;;;;;;13.23;62.65;101211.72;4921198;29;2022;-95
2022/06/04 06:53:55;;;;;;;;;;;;;;;13.23;62.37;101219.00;4924067;29;1622;-94
2022/06/04 06:56:22;;;;;;;;;;;;;;;13.23;62.53;101216.28;4924161;29;1162;-94
2022/06/04 06:58:48;;;;;;;;;;;;;;;13.23;62.65;101211.72;4923688;29;1166;-93
2022/06/04 07:01:15;;;;;;;;;;;;;;;13.24;62.60;101215.25;4919725;29;2061;-93
2022/06/04 07:03:41;;;;;;;;;;;;;;;13.24;62.52;101218.78;4922790;29;2034;-94
2022/06/04 07:06:08;;;;;;;;;;;;;;;13.24;62.38;101217.97;4923111;29;1993;-92
2022/06/04 07:08:34;;;;;;;;;;;;;;;13.23;62.32;101219.81;4922552;29;2258;-94
2022/06/04 07:11:00;;;;;;;;;;;;;;;13.23;62.64;101224.41;4923386;29;1227;-93
2022/06/04 07:13:27;;;;;;;;;;;;;;;13.24;62.43;101226.91;4935184;29;2343;-93
2022/06/04 07:15:53;;;;;;;;;;;;;;;13.24;62.32;101229.63;4923667;29;1338;-93
2022/06/04 07:18:20;;;;;;;;;;;;;;;13.25;62.37;101223.19;4923348;29;1245;-94
2022/06/04 07:20:46;;;;;;;;;;;;;;;13.26;62.17;101226.69;4922612;29;1304;-93
2022/06/04 07:23:12;;;;;;;;;;;;;;;13.25;62.30;101223.19;4923230;29;1977;-93
2022/06/04 07:25:41;;;;;;;;;;;;;;;13.26;62.33;101232.94;4936013;29;1535;-93
2022/06/04 07:28:08;;;;;;;;;;;;;;;13.26;62.53;101232.94;4923130;29;1180;-94
2022/06/04 07:30:34;;;;;;;;;;;;;;;13.27;62.33;101233.78;4922168;29;2262;-93
2022/06/04 07:33:01;;;;;;;;;;;;;;;13.26;62.49;101232.94;4904837;29;4830;-93
2022/06/04 07:35:27;;;;;;;;;;;;;;;13.26;62.50;101227.53;4929823;29;1259;-93
2022/06/04 07:37:54;;;;;;;;;;;;;;;13.26;62.33;101229.41;4927663;29;3957;-94
2022/06/04 07:40:21;;;;;;;;;;;;;;;13.25;62.57;101225.88;4921283;29;2497;-94
2022/06/04 07:42:48;;;;;;;;;;;;;;;13.25;62.45;101220.47;4923297;29;1298;-94
2022/06/04 07:45:14;;;;;;;;;;;;;;;13.27;62.52;101218.38;4923386;29;1914;-94
2022/06/04 07:47:41;;;;;;;;;;;;;;;13.26;62.52;101218.59;4922977;29;1310;-93
2022/06/04 07:50:08;;;;;;;;;;;;;;;13.27;62.50;101218.38;4941294;29;2077;-94
2022/06/04 07:52:37;;;;;;;;;;;;;;;13.28;62.35;101208.38;4918722;29;4174;-94
2022/06/04 07:55:03;;;;;;;;;;;;;;;13.28;62.45;101214.63;4920710;29;2046;-94
2022/06/04 07:57:30;;;;;;;;;;;;;;;13.29;62.56;101218.97;4939942;29;962;-94
2022/06/04 07:59:57;;;;;;;;;;;;;;;13.29;62.56;101213.56;4922854;29;1198;-94
2022/06/04 08:02:24;;;;;;;;;;;;;;;13.30;62.47;101209.00;4917977;29;2615;-93
2022/06/04 08:04:51;;;;;;;;;;;;;;;13.30;62.28;101209.00;4912957;29;2189;-93
2022/06/04 08:07:17;;;;;;;;;;;;;;;13.30;62.43;101207.13;4904019;29;1214;-93
2022/06/04 08:09:44;;;;;;;;;;;;;;;13.31;62.58;101208.75;4919273;29;2490;-94
2022/06/04 08:12:11;;;;;;;;;;;;;;;13.31;62.48;101208.75;4939878;29;1147;-93
2022/06/04 08:14:37;;;;;;;;;;;;;;;13.33;62.32;101211.25;4922692;29;1206;-93
2022/06/04 08:17:04;;;;;;;;;;;;;;;13.33;62.46;101208.56;4922462;29;1244;-93
2022/06/04 08:19:32;;;;;;;;;;;;;;;13.33;62.33;101211.25;4921888;29;1969;-93
2022/06/04 08:21:59;;;;;;;;;;;;;;;13.35;62.39;101217.25;4922736;29;2053;-93
2022/06/04 08:24:25;;;;;;;;;;;;;;;13.35;62.39;101223.50;4921006;29;1973;-94
2022/06/04 08:26:53;;;;;;;;;;;;;;;13.33;62.48;101222.91;4922477;29;1150;-94
2022/06/04 08:29:20;;;;;;;;;;;;;;;13.35;62.34;101225.38;4922754;29;1195;-94
2022/06/04 08:31:46;;;;;;;;;;;;;;;13.36;62.33;101227.03;4919865;29;2247;-94
2022/06/04 08:34:13;;;;;;;;;;;;;;;13.36;62.42;101221.63;4921577;29;1215;-94
2022/06/04 08:36:41;;;;;;;;;;;;;;;13.36;62.33;101219.75;4922121;29;1187;-95
2022/06/04 08:39:08;;;;;;;;;;;;;;;13.36;62.50;101225.16;4920758;29;2278;-95
2022/06/04 08:41:34;;;;;;;;;;;;;;;13.37;62.61;101221.41;4911623;29;1163;-95
2022/06/04 08:44:01;;;;;;;;;;;;;;;13.38;62.56;101222.22;4902984;29;1919;-94
2022/06/04 08:46:27;;;;;;;;;;;;;;;13.38;62.28;101220.38;4908228;29;2666;-95
2022/06/04 08:48:54;;;;;;;;;;;;;;;13.39;62.45;101218.47;4921862;29;1171;-94
2022/06/04 08:51:21;;;;;;;;;;;;;;;13.38;62.60;101216.81;4922681;29;1195;-95
2022/06/04 08:53:56;;;;;;;;;;;;;;;13.39;62.45;101221.19;5090598;27;1942;-94
2022/06/04 08:59:07;;;;;;;;;;;;;;;13.41;62.58;101210.94;5091835;28;1231;-93
2022/06/04 09:01:33;;;;;;;;;;;;;;;13.41;62.69;101216.38;5091652;28;1278;-92
2022/06/04 09:04:00;;;;;;;;;;;;;;;13.42;62.66;101209.09;5091623;28;1208;-93
2022/06/04 09:06:27;;;;;;;;;;;;;;;13.43;62.67;101210.75;5090361;28;2041;-93
2022/06/04 09:08:53;;;;;;;;;;;;;;;13.43;62.38;101221.56;5072424;28;2079;-93
2022/06/04 09:11:20;;;;;;;;;;;;;;;13.44;62.40;101212.38;5076018;28;1469;-93
2022/06/04 09:13:46;;;;;;;;;;;;;;;13.44;62.53;101215.09;5091332;28;1984;-93
2022/06/04 09:16:13;;;;;;;;;;;;;;;13.45;62.49;101214.88;5092381;28;1190;-93
2022/06/04 09:18:41;;;;;;;;;;;;;;;13.45;62.55;101216.78;5091278;28;1151;-93
2022/06/04 09:21:08;;;;;;;;;;;;;;;13.45;62.41;101219.47;5083651;28;2111;-93
2022/06/04 09:23:35;;;;;;;;;;;;;;;13.46;62.57;101221.13;5071086;28;1634;-93
2022/06/04 09:26:01;;;;;;;;;;;;;;;13.45;62.61;101214.88;5070809;28;2204;-93
2022/06/04 09:28:28;;;;;;;;;;;;;;;13.46;62.80;101221.13;5084552;28;1926;-93
2022/06/04 09:30:54;;;;;;;;;;;;;;;13.47;62.80;101222.75;5075923;28;1240;-93
2022/06/04 09:33:21;;;;;;;;;;;;;;;13.48;62.73;101219.84;5091061;28;1987;-93
2022/06/04 09:35:47;;;;;;;;;;;;;;;13.48;62.74;101227.97;5090945;28;1174;-93
2022/06/04 09:38:14;;;;;;;;;;;;;;;13.48;62.92;101224.44;5070968;28;1725;-93
2022/06/04 09:40:40;;;;;;;;;;;;;;;13.50;62.82;101225.88;5100993;28;2123;-93
2022/06/04 09:43:07;;;;;;;;;;;;;;;13.50;62.78;101219.63;5090870;28;1170;-93
2022/06/04 09:45:34;;;;;;;;;;;;;;;13.49;62.78;101221.50;5090757;28;1182;-93
2022/06/04 09:48:00;;;;;;;;;;;;;;;13.52;62.76;101223.75;5090842;28;1245;-94
2022/06/04 09:50:27;;;;;;;;;;;;;;;13.53;62.88;101221.88;5090785;28;1328;-93
2022/06/04 09:52:53;;;;;;;;;;;;;;;13.55;62.71;101223.31;5076123;28;2360;-93
2022/06/04 09:55:20;;;;;;;;;;;;;;;13.55;62.86;101220.59;5068739;28;1983;-94
2022/06/04 09:57:46;;;;;;;;;;;;;;;13.55;62.79;101212.47;5070179;28;1212;-94
2022/06/04 10:00:13;;;;;;;;;;;;;;;13.56;62.82;101210.59;5087030;28;1292;-94
2022/06/04 10:02:39;;;;;;;;;;;;;;;13.57;62.86;101207.69;5061768;28;4891;-94
2022/06/04 10:05:06;;;;;;;;;;;;;;;13.59;62.87;101199.34;5054699;28;3332;-94
2022/06/04 10:07:33;;;;;;;;;;;;;;;13.59;62.68;101199.34;5039565;28;2360;-94
2022/06/04 10:10:00;;;;;;;;;;;;;;;13.59;62.84;101192.06;5042333;28;2077;-94
2022/06/04 10:13:42;;;;;;;;;;;;;;;13.59;63.09;101192.06;5058481;28;1914;-93
2022/06/04 10:15:14;;;;;;;;;;;;;;;13.60;62.93;101198.28;5056882;28;1352;-93
2022/06/04 10:17:41;;;;;;;;;;;;;;;13.62;62.89;101193.50;5057178;28;1373;-93
2022/06/04 10:20:07;;;;;;;;;;;;;;;13.64;62.91;101192.19;5049204;28;1284;-94
2022/06/04 10:22:34;;;;;;;;;;;;;;;13.64;62.89;101189.47;5053239;28;1175;-94
2022/06/04 10:25:03;;;;;;;;;;;;;;;13.64;62.98;101189.47;5065426;28;2377;-94
2022/06/04 10:27:29;;;;;;;;;;;;;;;13.64;63.34;101192.19;5056855;28;1210;-93
2022/06/04 10:29:55;;;;;;;;;;;;;;;13.67;63.17;101198.22;5062695;28;1183;-94
2022/06/04 10:32:22;;;;;;;;;;;;;;;13.68;63.27;101191.75;5070589;28;1910;-94
2022/06/04 10:34:49;;;;;;;;;;;;;;;13.69;63.04;101185.28;5050975;28;2379;-93
2022/06/04 10:37:15;;;;;;;;;;;;;;;13.69;63.20;101191.53;5049464;28;2024;-93
2022/06/04 10:39:42;;;;;;;;;;;;;;;13.71;63.31;101194.03;5056459;28;1435;-93
2022/06/04 10:42:08;;;;;;;;;;;;;;;13.72;63.11;101195.66;5046977;28;1998;-94
2022/06/04 10:44:35;;;;;;;;;;;;;;;13.74;63.02;101189.00;5046247;28;2077;-93
2022/06/04 10:47:02;;;;;;;;;;;;;;;13.77;62.95;101188.53;5056162;28;1193;-94
2022/06/04 10:49:28;;;;;;;;;;;;;;;13.80;62.83;101196.19;5057052;28;1295;-93
2022/06/04 10:51:55;;;;;;;;;;;;;;;13.81;63.05;101197.03;5058850;28;1371;-94
2022/06/04 10:54:21;;;;;;;;;;;;;;;13.82;62.90;101196.81;5057959;28;2072;-94
2022/06/04 10:56:48;;;;;;;;;;;;;;;13.83;62.86;101192.22;5059969;28;1306;-94
2022/06/04 10:59:14;;;;;;;;;;;;;;;13.82;63.14;101191.41;5076236;28;1377;-93
2022/06/04 11:01:41;;;;;;;;;;;;;;;13.83;63.07;101184.09;5059408;28;1244;-94
2022/06/04 11:04:08;;;;;;;;;;;;;;;13.84;63.14;101180.31;5058607;28;1966;-94
2022/06/04 11:06:34;;;;;;;;;;;;;;;13.84;63.23;101180.31;5059223;28;1369;-94
2022/06/04 11:09:01;;;;;;;;;;;;;;;13.87;63.22;101190.69;5058628;28;1516;-94
2022/06/04 11:11:27;;;;;;;;;;;;;;;13.89;63.17;101183.19;5059263;28;1179;-93
2022/06/04 11:13:54;;;;;;;;;;;;;;;13.92;63.18;101187.34;5052421;28;2037;-94
2022/06/04 11:16:21;;;;;;;;;;;;;;;13.93;63.34;101178.97;5041814;28;1199;-94
2022/06/04 11:18:47;;;;;;;;;;;;;;;13.95;63.26;101179.56;5075083;28;2496;-94
2022/06/04 11:21:15;;;;;;;;;;;;;;;13.95;63.18;101176.88;5059073;28;1358;-94
2022/06/04 11:23:41;;;;;;;;;;;;;;;13.97;63.29;101173.91;5054667;28;1998;-93
2022/06/04 11:26:08;;;;;;;;;;;;;;;13.97;63.30;101172.06;5055541;28;1179;-94
2022/06/04 11:28:34;;;;;;;;;;;;;;;13.97;63.39;101169.34;5055680;28;1307;-94
2022/06/04 11:31:01;;;;;;;;;;;;;;;14.00;63.49;101162.63;5065480;28;2053;-93
2022/06/04 11:33:27;;;;;;;;;;;;;;;14.01;63.39;101167.00;5058751;28;1967;-94
2022/06/04 11:35:54;;;;;;;;;;;;;;;14.02;63.56;101164.06;5058483;28;1312;-94
2022/06/04 11:38:20;;;;;;;;;;;;;;;14.05;63.55;101162.78;5058303;28;1609;-93
2022/06/04 11:40:47;;;;;;;;;;;;;;;14.05;63.43;101160.06;5056732;28;2441;-94
2022/06/04 11:43:13;;;;;;;;;;;;;;;14.06;63.44;101157.16;5086765;28;1201;-95
2022/06/04 11:45:40;;;;;;;;;;;;;;;14.09;63.55;101158.59;5055354;28;1236;-94
2022/06/04 11:48:07;;;;;;;;;;;;;;;14.10;63.77;101165.66;5058583;28;2075;-94
2022/06/04 11:50:34;;;;;;;;;;;;;;;14.13;63.61;101159.75;5058444;28;1313;-94
2022/06/04 11:53:00;;;;;;;;;;;;;;;14.11;63.94;101152.91;5054782;28;1972;-94
2022/06/04 11:55:27;;;;;;;;;;;;;;;14.12;63.86;101160.84;5043614;28;2038;-93
2022/06/04 11:57:54;;;;;;;;;;;;;;;14.13;64.03;101151.66;5071469;28;1221;-94
2022/06/04 12:00:20;;;;;;;;;;;;;;;14.12;64.07;101154.56;5069435;28;2169;-94
2022/06/04 12:02:47;;;;;;;;;;;;;;;14.14;64.21;101147.88;5054931;28;1239;-95
2022/06/04 12:05:13;;;;;;;;;;;;;;;14.16;64.29;101150.38;5055908;28;1190;-94
2022/06/04 12:07:40;;;;;;;;;;;;;;;14.18;63.97;101153.69;5071363;28;1283;-94
2022/06/04 12:10:06;;;;;;;;;;;;;;;14.19;64.06;101152.59;5052946;28;1990;-95
2022/06/04 12:12:34;;;;;;;;;;;;;;;14.21;64.03;101151.34;5054600;28;1993;-95
2022/06/04 12:15:01;;;;;;;;;;;;;;;14.25;63.98;101140.84;5071865;28;1361;-94
2022/06/04 12:17:27;;;;;;;;;;;;;;;14.26;64.00;101146.03;5060581;28;1242;-94
2022/06/04 12:25:23;;;;;;;;;;;;;;;14.27;64.43;101136.88;5067957;28;1938;-95
2022/06/04 12:27:50;;;;;;;;;;;;;;;14.30;64.42;101122.84;5054328;28;1468;-95
2022/06/04 12:30:17;;;;;;;;;;;;;;;14.32;64.33;101128.88;5054750;28;1280;-94
2022/06/04 12:32:44;;;;;;;;;;;;;;;14.32;64.29;101133.44;5059983;28;4837;-95
2022/06/04 12:35:11;;;;;;;;;;;;;;;14.34;64.44;101130.53;5065461;28;3782;-94
2022/06/04 12:37:38;;;;;;;;;;;;;;;14.36;64.41;101126.53;5052520;28;2002;-95
2022/06/04 12:40:04;;;;;;;;;;;;;;;14.38;64.33;101123.56;5058372;28;2097;-94
2022/06/04 12:42:31;;;;;;;;;;;;;;;14.40;64.53;101130.41;5054167;28;1386;-95
2022/06/04 12:44:57;;;;;;;;;;;;;;;14.45;64.56;101132.44;5036625;28;1203;-95
2022/06/04 12:47:24;;;;;;;;;;;;;;;14.44;64.40;101118.06;5033872;28;1516;-94
2022/06/04 12:49:50;;;;;;;;;;;;;;;14.46;64.61;101121.34;5053823;28;1211;-95
2022/06/04 12:52:16;;;;;;;;;;;;;;;14.47;64.57;101125.75;5053822;28;2150;-94
2022/06/04 12:54:44;;;;;;;;;;;;;;;14.49;64.66;101110.06;5052332;28;2063;-95
2022/06/04 12:57:11;;;;;;;;;;;;;;;14.50;64.71;101110.88;5054092;28;1179;-95
2022/06/04 12:59:38;;;;;;;;;;;;;;;14.49;64.65;101107.34;5054259;28;1164;-95